createdAt,value
2018-06-21T00:00:44.484Z,3.13
2018-06-21T00:03:13.392Z,2.47
2018-06-21T00:05:42.268Z,2.33
2018-06-21T00:08:11.241Z,3.30
2018-06-21T00:10:39.870Z,3.43
2018-06-21T00:13:08.671Z,1.37
2018-06-21T00:15:37.548Z,2.67
2018-06-21T00:18:06.488Z,2.40
2018-06-21T00:20:35.387Z,1.80
2018-06-21T00:23:04.288Z,1.93
2018-06-21T00:25:33.232Z,1.90
2018-06-21T00:28:01.904Z,3.27
2018-06-21T00:30:30.760Z,1.13
2018-06-21T00:32:59.676Z,3.23
2018-06-21T00:35:28.584Z,2.90
2018-06-21T00:37:57.243Z,1.93
2018-06-21T00:40:26.012Z,4.07
2018-06-21T00:42:54.908Z,2.47
2018-06-21T00:45:23.807Z,1.00
2018-06-21T00:47:52.708Z,1.30
2018-06-21T00:50:21.579Z,2.40
2018-06-21T00:52:50.451Z,1.80
2018-06-21T00:55:30.665Z,2.33
2018-06-21T00:57:59.325Z,2.07
2018-06-21T01:00:28.071Z,1.37
2018-06-21T01:02:56.936Z,1.67
2018-06-21T01:05:25.828Z,1.20
2018-06-21T01:07:54.804Z,2.83
2018-06-21T01:10:23.499Z,3.23
2018-06-21T01:12:52.232Z,2.07
2018-06-21T01:15:21.100Z,3.43
2018-06-21T01:17:50.026Z,1.97
2018-06-21T01:20:18.891Z,2.73
2018-06-21T01:22:47.796Z,2.03
2018-06-21T01:25:16.740Z,1.90
2018-06-21T01:27:45.440Z,3.97
2018-06-21T01:30:14.216Z,1.53
2018-06-21T01:32:43.095Z,2.13
2018-06-21T01:35:11.799Z,2.80
2018-06-21T01:37:40.541Z,1.27
2018-06-21T01:40:09.447Z,3.23
2018-06-21T01:42:38.147Z,1.43
2018-06-21T01:45:06.908Z,2.37
2018-06-21T01:47:35.900Z,2.08
2018-06-21T01:50:04.824Z,4.07
2018-06-21T01:52:33.868Z,3.93
2018-06-21T01:55:02.745Z,2.23
2018-06-21T01:57:31.612Z,4.60
2018-06-21T02:00:00.480Z,5.07
2018-06-21T02:02:29.380Z,6.83
2018-06-21T02:04:58.289Z,2.63
2018-06-21T02:07:27.160Z,6.13
2018-06-21T02:09:56.069Z,3.47
2018-06-21T02:12:24.981Z,3.57
2018-06-21T02:14:53.858Z,3.87
2018-06-21T02:17:22.745Z,4.80
2018-06-21T02:19:51.611Z,4.63
2018-06-21T02:22:20.500Z,7.50
2018-06-21T02:24:49.392Z,4.53
2018-06-21T02:27:18.264Z,4.60
2018-06-21T02:29:47.152Z,8.43
2018-06-21T02:32:16.038Z,5.83
2018-06-21T02:34:44.887Z,4.13
2018-06-21T02:37:13.866Z,6.27
2018-06-21T02:39:42.731Z,6.13
2018-06-21T02:42:11.600Z,4.13
2018-06-21T02:44:40.489Z,3.47
2018-06-21T02:47:09.333Z,5.00
2018-06-21T02:49:38.212Z,5.63
2018-06-21T02:52:07.096Z,4.37
2018-06-21T02:54:35.964Z,3.27
2018-06-21T02:57:04.856Z,5.00
2018-06-21T02:59:33.716Z,5.13
2018-06-21T03:02:02.645Z,4.77
2018-06-21T03:04:31.842Z,6.17
2018-06-21T03:07:00.757Z,6.50
2018-06-21T03:09:29.628Z,6.07
2018-06-21T03:11:58.497Z,7.97
2018-06-21T03:14:27.389Z,5.93
2018-06-21T03:16:56.296Z,5.23
2018-06-21T03:19:25.152Z,6.50
2018-06-21T03:21:54.032Z,6.43
2018-06-21T03:24:22.905Z,4.47
2018-06-21T03:26:51.832Z,7.73
2018-06-21T03:29:20.701Z,7.03
2018-06-21T03:31:49.596Z,7.73
2018-06-21T03:34:18.472Z,4.40
2018-06-21T03:36:47.163Z,9.20
2018-06-21T03:39:16.080Z,5.70
2018-06-21T03:41:45.037Z,6.07
2018-06-21T03:44:13.954Z,7.97
2018-06-21T03:46:42.832Z,5.93
2018-06-21T03:49:11.694Z,7.63
2018-06-21T03:51:40.568Z,8.33
2018-06-21T03:54:09.452Z,4.50
2018-06-21T03:56:38.340Z,6.83
2018-06-21T03:59:07.449Z,9.23
2018-06-21T04:01:36.441Z,5.97
2018-06-21T04:04:05.442Z,9.57
2018-06-21T04:06:34.300Z,10.30
2018-06-21T04:09:03.663Z,6.20
2018-06-21T04:11:32.523Z,6.27
2018-06-21T04:14:01.385Z,6.10
2018-06-21T04:16:30.282Z,6.23
2018-06-21T04:18:59.180Z,12.63
2018-06-21T04:21:28.033Z,5.47
2018-06-21T04:23:56.956Z,7.83
2018-06-21T04:26:25.831Z,10.67
2018-06-21T04:28:54.750Z,6.67
2018-06-21T04:31:23.636Z,4.83
2018-06-21T04:33:52.476Z,7.00
2018-06-21T04:36:21.733Z,5.70
2018-06-21T04:38:50.499Z,6.47
2018-06-21T04:41:19.244Z,6.67
2018-06-21T04:43:48.170Z,7.77
2018-06-21T04:46:17.036Z,10.67
2018-06-21T04:48:45.932Z,6.67
2018-06-21T04:51:14.603Z,6.57
2018-06-21T04:53:43.472Z,4.70
2018-06-21T04:56:12.444Z,6.13
2018-06-21T04:58:41.092Z,3.50
2018-06-21T05:01:09.864Z,7.60
2018-06-21T05:03:38.731Z,6.93
2018-06-21T05:06:07.763Z,3.43
2018-06-21T05:08:36.708Z,4.63
2018-06-21T05:11:05.734Z,5.57
2018-06-21T05:13:34.608Z,3.60
2018-06-21T05:16:03.487Z,2.43
2018-06-21T05:18:32.476Z,5.97
2018-06-21T05:21:01.389Z,1.97
2018-06-21T05:23:30.216Z,5.33
2018-06-21T05:25:59.086Z,6.40
2018-06-21T05:28:27.934Z,3.10
2018-06-21T05:30:56.761Z,1.70
2018-06-21T05:33:25.606Z,4.80
2018-06-21T05:35:54.426Z,2.90
2018-06-21T05:38:23.263Z,4.77
2018-06-21T05:40:52.107Z,2.37
2018-06-21T05:43:20.937Z,3.50
2018-06-21T05:45:49.794Z,5.30
2018-06-21T05:48:18.626Z,1.63
2018-06-21T05:50:47.470Z,3.20
2018-06-21T05:53:16.474Z,5.37
2018-06-21T05:55:45.089Z,5.03
2018-06-21T05:58:14.033Z,4.70
2018-06-21T06:00:42.894Z,2.60
2018-06-21T06:03:11.842Z,2.37
2018-06-21T06:05:40.717Z,3.40
2018-06-21T06:08:09.775Z,1.37
2018-06-21T06:10:38.605Z,5.67
2018-06-21T06:13:07.515Z,3.73
2018-06-21T06:15:36.350Z,3.77
2018-06-21T06:18:05.186Z,2.67
2018-06-21T06:20:34.346Z,3.13
2018-06-21T06:23:03.131Z,3.30
2018-06-21T06:25:31.937Z,4.63
2018-06-21T06:28:00.750Z,3.63
2018-06-21T06:30:29.567Z,4.23
2018-06-21T06:32:58.390Z,6.73
2018-06-21T06:35:28.727Z,3.73
2018-06-21T06:37:58.165Z,2.93
2018-06-21T06:40:26.896Z,5.47
2018-06-21T06:42:55.830Z,5.43
2018-06-21T06:45:24.903Z,3.97
2018-06-21T06:47:53.726Z,3.50
2018-06-21T06:50:22.541Z,7.47
2018-06-21T06:52:51.577Z,6.23
2018-06-21T06:55:20.402Z,1.53
2018-06-21T06:57:49.371Z,3.57
2018-06-21T07:00:18.471Z,3.97
2018-06-21T07:02:47.262Z,5.03
2018-06-21T07:05:16.086Z,2.80
2018-06-21T07:07:44.892Z,4.77
2018-06-21T07:10:13.786Z,3.57
2018-06-21T07:12:42.694Z,4.63
2018-06-21T07:15:11.650Z,4.27
2018-06-21T07:17:40.482Z,3.80
2018-06-21T07:20:09.383Z,4.00
2018-06-21T07:22:38.203Z,1.97
2018-06-21T07:25:07.015Z,4.07
2018-06-21T07:27:35.830Z,3.37
2018-06-21T07:30:04.697Z,3.63
2018-06-21T07:32:33.539Z,3.03
2018-06-21T07:35:02.390Z,3.20
2018-06-21T07:37:31.013Z,2.43
2018-06-21T07:39:59.724Z,3.17
2018-06-21T07:42:28.774Z,4.60
2018-06-21T07:44:57.591Z,1.37
2018-06-21T07:47:26.454Z,3.87
2018-06-21T07:49:55.298Z,1.90
2018-06-21T07:52:24.164Z,3.60
2018-06-21T07:54:53.057Z,2.87
2018-06-21T07:57:21.969Z,1.87
2018-06-21T07:59:50.772Z,3.00
2018-06-21T08:02:19.695Z,2.63
2018-06-21T08:04:48.542Z,8.73
2018-06-21T08:07:17.370Z,5.03
2018-06-21T08:09:46.214Z,5.33
2018-06-21T08:12:15.038Z,2.27
2018-06-21T08:14:43.878Z,5.90
2018-06-21T08:17:12.732Z,5.27
2018-06-21T08:19:41.630Z,4.13
2018-06-21T08:22:10.450Z,1.97
2018-06-21T08:24:39.273Z,5.60
2018-06-21T08:27:08.116Z,6.97
2018-06-21T08:29:36.949Z,2.27
2018-06-21T08:32:05.825Z,4.40
2018-06-21T08:34:34.457Z,2.30
2018-06-21T08:37:03.186Z,2.77
2018-06-21T08:39:31.833Z,6.83
2018-06-21T08:42:00.547Z,15.60
2018-06-21T08:44:29.157Z,9.33
2018-06-21T08:46:57.842Z,7.10
2018-06-21T08:49:26.670Z,2.93
2018-06-21T08:51:55.596Z,4.43
2018-06-21T08:54:24.229Z,3.80
2018-06-21T08:56:52.958Z,3.87
2018-06-21T08:59:21.774Z,3.20
2018-06-21T09:01:50.598Z,6.90
2018-06-21T09:04:19.422Z,2.63
2018-06-21T09:06:48.231Z,3.80
2018-06-21T09:09:17.087Z,3.37
2018-06-21T09:11:45.906Z,2.23
2018-06-21T09:14:14.738Z,1.67
2018-06-21T09:16:43.582Z,2.70
2018-06-21T09:19:12.549Z,2.57
2018-06-21T09:21:41.331Z,4.40
2018-06-21T09:24:10.173Z,6.20
2018-06-21T09:26:39.018Z,4.23
2018-06-21T09:29:07.621Z,1.37
2018-06-21T09:31:36.426Z,6.73
2018-06-21T09:34:05.267Z,3.47
2018-06-21T09:36:37.778Z,3.17
2018-06-21T09:39:14.302Z,6.53
2018-06-21T09:41:48.751Z,4.07
2018-06-21T09:44:22.847Z,4.37
2018-06-21T09:46:57.263Z,6.47
2018-06-21T09:49:28.929Z,7.30
2018-06-21T09:51:59.162Z,4.23
2018-06-21T09:54:28.015Z,2.30
2018-06-21T09:56:57.022Z,1.13
2018-06-21T09:59:25.980Z,3.93
2018-06-21T10:01:55.086Z,3.60
2018-06-21T10:04:23.903Z,1.13
2018-06-21T10:06:52.734Z,2.90
2018-06-21T10:09:21.592Z,3.50
2018-06-21T10:11:50.418Z,4.07
2018-06-21T10:14:19.266Z,7.10
2018-06-21T10:16:48.095Z,11.53
2018-06-21T10:19:16.947Z,3.17
2018-06-21T10:21:45.810Z,5.80
2018-06-21T10:24:14.648Z,4.40
2018-06-21T10:26:43.478Z,5.77
2018-06-21T10:29:12.326Z,2.90
2018-06-21T10:31:41.190Z,4.70
2018-06-21T10:34:10.014Z,4.37
2018-06-21T10:36:38.824Z,2.40
2018-06-21T10:39:09.206Z,4.20
2018-06-21T10:41:38.058Z,4.97
2018-06-21T10:44:06.902Z,3.40
2018-06-21T10:46:35.738Z,3.20
2018-06-21T10:49:04.671Z,3.43
2018-06-21T10:51:33.454Z,7.07
2018-06-21T10:54:02.486Z,6.60
2018-06-21T10:56:31.609Z,6.70
2018-06-21T10:59:00.511Z,4.67
2018-06-21T11:01:29.790Z,10.77
2018-06-21T11:03:58.683Z,3.80
2018-06-21T11:06:27.571Z,3.70
2018-06-21T11:08:56.399Z,3.00
2018-06-21T11:11:25.254Z,1.73
2018-06-21T11:13:54.058Z,7.93
2018-06-21T11:16:22.878Z,5.37
2018-06-21T11:18:51.734Z,8.07
2018-06-21T11:21:20.633Z,9.97
2018-06-21T11:23:49.426Z,5.27
2018-06-21T11:26:18.340Z,3.83
2018-06-21T11:28:47.190Z,4.93
2018-06-21T11:31:16.027Z,3.90
2018-06-21T11:33:44.862Z,6.10
2018-06-21T11:36:13.690Z,4.00
2018-06-21T11:38:42.502Z,3.50
2018-06-21T11:41:11.430Z,3.70
2018-06-21T11:43:40.358Z,1.93
2018-06-21T11:46:09.302Z,4.30
2018-06-21T11:48:37.905Z,2.63
2018-06-21T11:51:06.742Z,2.50
2018-06-21T11:53:35.637Z,6.07
2018-06-21T11:56:04.502Z,2.83
2018-06-21T11:58:33.365Z,4.97
2018-06-21T12:01:02.238Z,3.43
2018-06-21T12:03:31.051Z,8.63
2018-06-21T12:05:59.866Z,4.40
2018-06-21T12:08:28.703Z,4.23
2018-06-21T12:10:57.350Z,5.40
2018-06-21T12:13:26.061Z,6.50
2018-06-21T12:15:54.675Z,4.10
2018-06-21T12:18:23.354Z,5.57
2018-06-21T12:20:52.226Z,6.60
2018-06-21T12:23:21.012Z,4.07
2018-06-21T12:25:49.986Z,6.30
2018-06-21T12:28:18.824Z,4.27
2018-06-21T12:30:47.618Z,4.33
2018-06-21T12:33:16.458Z,3.03
2018-06-21T12:35:45.078Z,2.97
2018-06-21T12:38:13.759Z,4.27
2018-06-21T12:40:42.611Z,6.30
2018-06-21T12:43:11.426Z,4.20
2018-06-21T12:45:40.418Z,3.17
2018-06-21T12:48:09.694Z,4.03
2018-06-21T12:50:38.539Z,3.60
2018-06-21T12:53:07.493Z,5.57
2018-06-21T12:55:36.378Z,4.13
2018-06-21T12:58:05.258Z,4.53
2018-06-21T13:00:34.767Z,5.53
2018-06-21T13:03:03.702Z,3.33
2018-06-21T13:05:32.527Z,4.43
2018-06-21T13:08:01.436Z,4.20
2018-06-21T13:10:41.710Z,6.17
2018-06-21T13:13:27.799Z,3.27
2018-06-21T13:15:56.715Z,3.73
2018-06-21T13:18:25.343Z,1.53
2018-06-21T13:20:54.229Z,4.13
2018-06-21T13:23:23.054Z,7.63
2018-06-21T13:25:52.007Z,2.40
2018-06-21T13:28:21.086Z,4.53
2018-06-21T13:30:50.200Z,6.03
2018-06-21T13:33:19.054Z,4.87
2018-06-21T13:35:47.908Z,2.83
2018-06-21T13:38:16.738Z,3.70
2018-06-21T13:40:45.606Z,2.67
2018-06-21T13:43:14.447Z,4.30
2018-06-21T13:45:43.333Z,1.47
2018-06-21T13:48:12.025Z,5.30
2018-06-21T13:50:40.854Z,5.23
2018-06-21T13:53:09.706Z,1.90
2018-06-21T13:55:38.449Z,3.53
2018-06-21T13:58:07.248Z,2.53
2018-06-21T14:00:37.078Z,3.03
2018-06-21T14:03:05.939Z,1.70
2018-06-21T14:05:34.769Z,2.63
2018-06-21T14:08:03.901Z,5.23
2018-06-21T14:10:32.674Z,6.57
2018-06-21T14:13:01.618Z,2.20
2018-06-21T14:15:30.361Z,0.80
2018-06-21T14:17:59.078Z,1.90
2018-06-21T14:20:27.945Z,4.87
2018-06-21T14:22:56.842Z,1.87
2018-06-21T14:25:25.709Z,2.40
2018-06-21T14:27:54.566Z,4.50
2018-06-21T14:30:23.480Z,3.07
2018-06-21T14:32:52.361Z,1.07
2018-06-21T14:35:21.331Z,1.57
2018-06-21T14:37:50.304Z,3.67
2018-06-21T14:40:19.226Z,0.97
2018-06-21T14:42:48.171Z,3.67
2018-06-21T14:45:17.031Z,1.23
2018-06-21T14:47:46.124Z,3.80
2018-06-21T14:50:15.132Z,2.13
2018-06-21T14:52:43.966Z,1.93
2018-06-21T14:55:12.569Z,2.40
2018-06-21T14:57:41.386Z,1.50
2018-06-21T15:00:10.538Z,1.23
2018-06-21T15:02:39.354Z,4.30
2018-06-21T15:05:08.599Z,1.50
2018-06-21T15:07:37.378Z,3.33
2018-06-21T15:10:06.227Z,2.50
2018-06-21T15:12:35.140Z,4.30
2018-06-21T15:15:04.012Z,4.90
2018-06-21T15:17:33.028Z,5.43
2018-06-21T15:20:02.222Z,1.47
2018-06-21T15:22:31.154Z,1.20
2018-06-21T15:25:00.013Z,1.17
2018-06-21T15:27:28.952Z,1.67
2018-06-21T15:29:57.546Z,1.87
2018-06-21T15:32:26.293Z,2.97
2018-06-21T15:34:55.146Z,2.80
2018-06-21T15:37:23.990Z,2.13
2018-06-21T15:39:52.605Z,2.90
2018-06-21T15:42:21.300Z,1.73
2018-06-21T15:44:50.146Z,1.70
2018-06-21T15:47:19.007Z,3.80
2018-06-21T15:49:47.877Z,3.17
2018-06-21T15:52:16.706Z,2.37
2018-06-21T15:54:45.694Z,4.13
2018-06-21T15:57:14.774Z,1.87
2018-06-21T15:59:43.526Z,1.47
2018-06-21T16:02:12.425Z,3.50
2018-06-21T16:04:41.283Z,2.00
2018-06-21T16:07:10.094Z,1.53
2018-06-21T16:09:38.970Z,4.17
2018-06-21T16:12:07.827Z,2.10
2018-06-21T16:14:36.751Z,4.47
2018-06-21T16:17:05.603Z,1.60
2018-06-21T16:19:34.434Z,4.47
2018-06-21T16:22:03.268Z,3.90
2018-06-21T16:24:32.087Z,2.17
2018-06-21T16:27:00.923Z,5.87
2018-06-21T16:29:29.728Z,2.93
2018-06-21T16:31:58.559Z,4.00
2018-06-21T16:34:27.416Z,2.10
2018-06-21T16:36:56.354Z,6.03
2018-06-21T16:39:25.199Z,6.00
2018-06-21T16:41:54.284Z,6.57
2018-06-21T16:44:23.058Z,3.93
2018-06-21T16:46:51.870Z,2.83
2018-06-21T16:49:20.692Z,4.27
2018-06-21T16:51:49.514Z,7.67
2018-06-21T16:54:18.331Z,6.97
2018-06-21T16:56:47.210Z,4.07
2018-06-21T16:59:16.052Z,6.30
2018-06-21T17:01:44.850Z,8.00
2018-06-21T17:04:13.674Z,7.30
2018-06-21T17:06:42.564Z,5.47
2018-06-21T17:09:11.675Z,4.67
2018-06-21T17:11:40.874Z,4.57
2018-06-21T17:14:09.966Z,9.13
2018-06-21T17:16:38.838Z,7.97
2018-06-21T17:19:07.955Z,9.10
2018-06-21T17:21:36.798Z,11.33
2018-06-21T17:24:05.675Z,28.03
2018-06-21T17:26:34.602Z,40.97
2018-06-21T17:29:03.460Z,57.33
2018-06-21T17:31:32.335Z,84.30
2018-06-21T17:34:01.197Z,43.17
2018-06-21T17:36:30.035Z,24.97
2018-06-21T17:38:58.864Z,20.30
2018-06-21T17:41:27.784Z,16.00
2018-06-21T17:43:56.731Z,6.50
2018-06-21T17:46:25.539Z,6.90
2018-06-21T17:48:54.694Z,16.07
2018-06-21T17:51:23.762Z,7.97
2018-06-21T17:53:52.562Z,12.10
2018-06-21T17:56:21.669Z,7.60
2018-06-21T17:58:50.490Z,5.37
2018-06-21T18:01:19.331Z,5.43
2018-06-21T18:03:48.231Z,8.03
2018-06-21T18:06:17.172Z,10.10
2018-06-21T18:08:46.042Z,4.50
2018-06-21T18:11:14.931Z,3.77
2018-06-21T18:13:43.638Z,5.50
2018-06-21T18:16:12.394Z,3.03
2018-06-21T18:18:41.282Z,6.60
2018-06-21T18:21:10.199Z,3.47
2018-06-21T18:23:39.101Z,3.17
2018-06-21T18:26:08.157Z,4.63
2018-06-21T18:28:37.028Z,3.43
2018-06-21T18:31:05.886Z,6.93
2018-06-21T18:33:34.846Z,2.37
2018-06-21T18:36:03.776Z,4.23
2018-06-21T18:38:32.650Z,1.90
2018-06-21T18:41:01.502Z,2.63
2018-06-21T18:43:30.489Z,5.40
2018-06-21T18:45:59.294Z,7.70
2018-06-21T18:48:28.350Z,15.33
2018-06-21T18:50:57.322Z,7.60
2018-06-21T18:53:26.170Z,5.00
2018-06-21T18:55:55.062Z,4.87
2018-06-21T18:58:23.725Z,5.47
2018-06-21T19:00:52.404Z,4.77
2018-06-21T19:03:21.330Z,5.30
2018-06-21T19:05:50.142Z,4.73
2018-06-21T19:08:24.362Z,7.27
2018-06-21T19:10:58.730Z,6.97
2018-06-21T19:13:27.577Z,3.33
2018-06-21T19:15:56.479Z,8.47
2018-06-21T19:18:25.315Z,4.33
2018-06-21T19:20:54.170Z,5.57
2018-06-21T19:23:22.989Z,4.00
2018-06-21T19:25:51.830Z,6.53
2018-06-21T19:32:10.403Z,3.93
2018-06-21T19:34:39.243Z,5.80
2018-06-21T19:41:40.520Z,3.13
2018-06-21T19:44:10.388Z,6.60
2018-06-21T19:46:40.946Z,4.03
2018-06-21T19:49:09.817Z,5.13
2018-06-21T19:51:38.683Z,7.97
2018-06-21T19:57:58.331Z,6.80
2018-06-21T20:00:27.276Z,7.87
2018-06-21T20:02:58.813Z,5.30
2018-06-21T20:05:28.076Z,10.43
2018-06-21T20:07:57.310Z,2.63
2018-06-21T20:10:26.705Z,5.83
2018-06-21T20:12:56.283Z,5.53
2018-06-21T20:15:25.142Z,6.33
2018-06-21T20:17:54.092Z,2.07
2018-06-21T20:20:28.250Z,3.57
2018-06-21T20:22:57.198Z,4.53
2018-06-21T20:25:26.034Z,4.37
2018-06-21T20:27:54.890Z,4.70
2018-06-21T20:30:23.706Z,4.47
2018-06-21T20:32:52.558Z,9.30
2018-06-21T20:35:21.433Z,8.30
2018-06-21T20:37:50.285Z,5.03
2018-06-21T20:40:19.694Z,3.72
2018-06-21T20:42:48.547Z,9.93
2018-06-21T20:45:17.358Z,6.23
2018-06-21T20:47:46.207Z,3.93
2018-06-21T20:50:15.125Z,7.70
2018-06-21T20:52:43.962Z,5.03
2018-06-21T20:55:12.814Z,3.80
2018-06-21T20:57:41.665Z,4.63
2018-06-21T21:00:10.582Z,5.23
2018-06-21T21:02:39.223Z,8.90
2018-06-21T21:05:09.560Z,4.20
2018-06-21T21:07:38.561Z,3.00
2018-06-21T21:10:08.963Z,6.17
2018-06-21T21:12:38.102Z,6.93
2018-06-21T21:15:07.425Z,4.90
2018-06-21T21:17:36.400Z,3.87
2018-06-21T21:20:05.820Z,5.10
2018-06-21T21:22:35.046Z,6.33
2018-06-21T21:25:03.864Z,4.63
2018-06-21T21:27:32.705Z,3.43
2018-06-21T21:30:01.520Z,2.00
2018-06-21T21:32:30.354Z,9.00
2018-06-21T21:34:59.445Z,3.67
2018-06-21T21:37:28.574Z,4.00
2018-06-21T21:40:00.514Z,9.83
2018-06-21T21:42:30.350Z,5.70
2018-06-21T21:44:59.209Z,3.97
2018-06-21T21:47:28.125Z,7.90
2018-06-21T21:49:57.094Z,2.73
2018-06-21T21:52:25.934Z,4.87
2018-06-21T21:54:54.846Z,4.20
2018-06-21T21:57:23.730Z,4.47
2018-06-21T21:59:52.549Z,3.80
2018-06-21T22:02:21.436Z,2.87
2018-06-21T22:04:50.422Z,4.83
2018-06-21T22:07:19.307Z,3.13
2018-06-21T22:09:47.918Z,3.57
2018-06-21T22:12:16.614Z,2.17
2018-06-21T22:14:45.920Z,1.97
2018-06-21T22:17:14.783Z,3.47
2018-06-21T22:19:43.606Z,13.37
2018-06-21T22:22:12.446Z,6.43
2018-06-21T22:24:41.262Z,4.80
2018-06-21T22:27:10.116Z,2.37
2018-06-21T22:29:38.969Z,2.50
2018-06-21T22:32:07.844Z,6.73
2018-06-21T22:34:36.674Z,4.63
2018-06-21T22:37:05.301Z,2.90
2018-06-21T22:39:34.058Z,3.33
2018-06-21T22:42:02.978Z,2.10
2018-06-21T22:44:31.944Z,3.97
2018-06-21T22:47:00.806Z,2.83
2018-06-21T22:49:29.899Z,4.53
2018-06-21T22:51:58.694Z,6.63
2018-06-21T22:54:27.730Z,3.17
2018-06-21T22:56:56.666Z,8.53
2018-06-21T22:59:25.598Z,3.97
2018-06-21T23:01:54.646Z,3.53
2018-06-21T23:04:23.564Z,4.63
2018-06-21T23:06:53.405Z,2.53
2018-06-21T23:09:22.331Z,4.97
2018-06-21T23:11:54.961Z,5.30
2018-06-21T23:14:23.842Z,4.37
2018-06-21T23:16:55.083Z,2.17
2018-06-21T23:19:28.130Z,2.50
2018-06-21T23:21:57.212Z,4.67
2018-06-21T23:24:26.493Z,2.93
2018-06-21T23:26:56.094Z,3.80
2018-06-21T23:29:24.998Z,3.33
2018-06-21T23:31:53.942Z,7.40
2018-06-21T23:34:22.758Z,3.67
2018-06-21T23:36:51.861Z,2.57
2018-06-21T23:39:20.701Z,3.07
2018-06-21T23:41:50.022Z,3.97
2018-06-21T23:44:18.890Z,2.87
2018-06-21T23:46:47.525Z,4.63
2018-06-21T23:49:16.277Z,3.43
2018-06-21T23:51:45.603Z,6.90
2018-06-21T23:54:14.782Z,4.17
2018-06-21T23:56:44.365Z,4.87
2018-06-21T23:59:13.250Z,2.17
